Main page
METAR-TAF:

METAR-TAF

Airports :

Málaga Airport

Málaga, Spain

latitude: 36-40N, longitude: 004-29W, elevation: 16 m

Current weather observation

The report was made 17 minutes ago, at 01:30 UTC
Wind 5 kt from the West/Northwest
Temperature 12°C
Humidity 94%
Pressure 1026 hPa
Visibility 10 km or more
no clouds below 1500 m and no cumulonimbus

METAR: LEMG 030130Z 29005KT CAVOK 12/11 Q1026 NOSIG

Time: 02:47 (01:47 UTC)

Forecast

The report was made 2 hours and 47 minutes ago, at 23:00 UTC
Forecast valid from 03 at 00 UTC to 03 at 24 UTC
Wind 6 kt from the West/Northwest
Visibility 10 km or more
Few clouds at a height of 3000 ft
Becoming
from 03 at 09 UTC to 03 at 11 UTC
Wind 9 kt from the Southeast

TAF: LEMG 022300Z 0300/0324 29006KT 9999 FEW030 TX18/0314Z TN11/0306Z BECMG 0309/0311 14009KT

Weather observations and forecasts of more than 4000 airports (METAR and TAF reports).

The available stations are represented by yellow and red dots on the map.

Hover mouse over dot to see the name of the station.

Then click to see weather observations and forecasts.

To change the map : click on the green buttons with a black cross to zoom in, on the green button with a dash to zoom out, or on the green arrows for adjacent maps.


METAR-TAF: